KHPN

Westchester County Airport

Airport
ICAO code
KHPN
Summary
ICAO Region
NAM
ICAO Territory
Location

White Plains, New York,

Elevation
439 ft
Coordinates
41° 4' 7" N , 73° 42' 15" W
KCC
Airport WX
Cumulonimbus
Metar
KHPN 181556Z 32009KT 10SM FEW030 BKN120 27/20 A2991 RMK AO2 SLP122 T02720200

Description

Westchester County Airport is a public use airport in Westchester County, New York, located 6 km northeast of the central business district of White Plains, serving the towns of Harrison, North Castle and Rye Brook.

Climatology

Humid Continental climate (Köppen climate classification Dfb) - Variable weather patterns and a large seasonal temperature variance. Summers are often warm and humid with frequent thunderstorms and winters can be very cold with frequent snowfall and persistent snow cover.

Airport map

Aerial View

SKYbrary Partners:

Safety knowledge contributed by: